Time;durP1;ratioP1;P1;durP2;ratioP2;P2;SDS_P1;SDS_P2;PMS_P1;PMS_P2;Temp;Humidity;BMP_temperature;BMP_pressure;BME280_temperature;BME280_humidity;BME280_pressure;Samples;Min_cycle;Max_cycle;Signal;HPM_P1;HPM_P2
2022/05/02 00:00:44;;;;;;;;;;;21.60;40.90;;;;;;476901;248;1231;-39
2022/05/02 00:02:46;;;;;;;;;;;21.60;40.90;;;;;;476776;248;1179;-39
2022/05/02 00:04:47;;;;;;;;;;;21.60;40.90;;;;;;476846;248;1356;-39
2022/05/02 00:06:48;;;;;;;;;;;21.60;40.80;;;;;;476421;248;1193;-39
2022/05/02 00:08:50;;;;;;;;;;;21.60;40.80;;;;;;476876;248;2117;-39
2022/05/02 00:10:51;;;;;;;;;;;21.60;40.80;;;;;;476789;249;1064;-39
2022/05/02 00:12:53;;;;;;;;;;;21.60;40.90;;;;;;476482;248;1061;-39
2022/05/02 00:14:54;;;;;;;;;;;21.60;40.90;;;;;;476854;249;2384;-39
2022/05/02 00:16:55;;;;;;;;;;;21.50;40.90;;;;;;476432;248;1066;-39
2022/05/02 00:18:56;;;;;;;;;;;21.50;40.90;;;;;;476568;248;1213;-39
2022/05/02 00:20:58;;;;;;;;;;;21.50;40.90;;;;;;476886;248;1359;-39
2022/05/02 00:22:59;;;;;;;;;;;21.50;40.90;;;;;;476888;248;1061;-39
2022/05/02 00:25:00;;;;;;;;;;;21.60;40.90;;;;;;476917;248;1027;-39
2022/05/02 00:27:01;;;;;;;;;;;21.50;40.80;;;;;;476863;248;1230;-39
2022/05/02 00:29:03;;;;;;;;;;;21.50;40.90;;;;;;476402;248;2199;-39
2022/05/02 00:31:04;;;;;;;;;;;21.60;40.90;;;;;;476802;246;1144;-39
2022/05/02 00:33:05;;;;;;;;;;;21.60;40.80;;;;;;476672;248;1293;-39
2022/05/02 00:35:07;;;;;;;;;;;21.60;40.80;;;;;;476838;248;1054;-39
2022/05/02 00:37:08;;;;;;;;;;;21.60;40.80;;;;;;476519;248;1213;-39
2022/05/02 00:39:09;;;;;;;;;;;21.60;40.80;;;;;;476887;249;1114;-39
2022/05/02 00:41:11;;;;;;;;;;;21.60;40.80;;;;;;476831;248;1075;-39
2022/05/02 00:43:12;;;;;;;;;;;21.60;40.80;;;;;;476777;248;1053;-39
2022/05/02 00:45:14;;;;;;;;;;;21.60;40.80;;;;;;476407;248;1223;-39
2022/05/02 00:47:20;;;;;;;;;;;21.50;40.90;;;;;;476472;248;1236;-39
2022/05/02 00:49:17;;;;;;;;;;;21.50;40.90;;;;;;476196;250;2474;-39
2022/05/02 00:51:18;;;;;;;;;;;21.50;40.80;;;;;;476762;248;1044;-39
2022/05/02 00:53:20;;;;;;;;;;;21.50;40.80;;;;;;476418;248;1094;-39
2022/05/02 00:55:21;;;;;;;;;;;21.60;40.80;;;;;;476397;250;1111;-39
2022/05/02 00:57:22;;;;;;;;;;;21.60;40.80;;;;;;476822;248;1071;-39
2022/05/02 00:59:23;;;;;;;;;;;21.50;40.90;;;;;;476777;248;1057;-39
2022/05/02 01:01:25;;;;;;;;;;;21.60;40.90;;;;;;476878;248;1244;-39
2022/05/02 01:03:26;;;;;;;;;;;21.60;40.80;;;;;;476772;249;1144;-39
2022/05/02 01:05:27;;;;;;;;;;;21.60;40.80;;;;;;476858;248;1069;-39
2022/05/02 01:07:29;;;;;;;;;;;21.60;40.80;;;;;;476786;248;1151;-39
2022/05/02 01:09:30;;;;;;;;;;;21.60;40.80;;;;;;476886;248;2121;-39
2022/05/02 01:11:31;;;;;;;;;;;21.60;40.80;;;;;;476834;248;1385;-39
2022/05/02 01:13:33;;;;;;;;;;;21.60;40.80;;;;;;476810;248;1084;-39
2022/05/02 01:15:34;;;;;;;;;;;21.60;40.80;;;;;;476853;248;1079;-39
2022/05/02 01:17:37;;;;;;;;;;;21.60;40.70;;;;;;476397;248;1303;-39
2022/05/02 01:19:37;;;;;;;;;;;21.60;40.80;;;;;;476375;248;2461;-39
2022/05/02 01:21:40;;;;;;;;;;;21.50;40.80;;;;;;476811;248;1167;-39
2022/05/02 01:23:40;;;;;;;;;;;21.50;40.80;;;;;;476819;249;2205;-39
2022/05/02 01:25:41;;;;;;;;;;;21.60;40.90;;;;;;476485;248;980;-39
2022/05/02 01:27:43;;;;;;;;;;;21.60;40.90;;;;;;476788;249;1039;-39
2022/05/02 01:29:45;;;;;;;;;;;21.60;40.90;;;;;;476893;248;2137;-39
2022/05/02 01:31:45;;;;;;;;;;;21.60;40.80;;;;;;476448;248;2311;-39
2022/05/02 01:33:47;;;;;;;;;;;21.50;40.80;;;;;;476758;249;1183;-39
2022/05/02 01:35:48;;;;;;;;;;;21.60;40.80;;;;;;476929;248;1084;-39
2022/05/02 01:37:49;;;;;;;;;;;21.60;40.80;;;;;;476446;248;1098;-39
2022/05/02 01:39:51;;;;;;;;;;;21.60;40.80;;;;;;476870;249;1040;-39
2022/05/02 01:41:52;;;;;;;;;;;21.60;40.80;;;;;;476552;248;1078;-39
2022/05/02 01:43:53;;;;;;;;;;;21.50;40.80;;;;;;476447;250;1095;-39
2022/05/02 01:45:55;;;;;;;;;;;21.60;40.80;;;;;;476813;249;1057;-39
2022/05/02 01:47:56;;;;;;;;;;;21.60;40.80;;;;;;476896;248;2121;-39
2022/05/02 01:49:58;;;;;;;;;;;21.50;40.80;;;;;;476475;248;1269;-39
2022/05/02 01:51:58;;;;;;;;;;;21.60;40.80;;;;;;476440;248;1109;-39
2022/05/02 01:54:00;;;;;;;;;;;21.50;40.80;;;;;;476909;248;1085;-39
2022/05/02 01:56:01;;;;;;;;;;;21.50;40.80;;;;;;476754;248;1064;-39
2022/05/02 01:58:02;;;;;;;;;;;21.60;40.80;;;;;;476822;248;1194;-39
2022/05/02 02:00:04;;;;;;;;;;;21.60;40.80;;;;;;476858;248;1068;-39
2022/05/02 02:02:05;;;;;;;;;;;21.50;40.80;;;;;;476623;248;1239;-39
2022/05/02 02:05:48;;;;;;;;;;;21.60;40.80;;;;;;476803;248;1131;-39
2022/05/02 02:06:08;;;;;;;;;;;21.60;40.70;;;;;;475628;250;2261;-40
2022/05/02 02:08:09;;;;;;;;;;;21.60;40.70;;;;;;476802;248;2124;-39
2022/05/02 02:10:11;;;;;;;;;;;21.60;40.80;;;;;;476548;249;1118;-39
2022/05/02 02:12:12;;;;;;;;;;;21.60;40.80;;;;;;476863;248;1208;-39
2022/05/02 02:14:13;;;;;;;;;;;21.50;40.80;;;;;;476446;248;1083;-39
2022/05/02 02:16:15;;;;;;;;;;;21.50;40.80;;;;;;476817;249;1387;-39
2022/05/02 02:18:16;;;;;;;;;;;21.60;40.90;;;;;;476450;248;1140;-39
2022/05/02 02:20:17;;;;;;;;;;;21.50;40.80;;;;;;476555;248;1292;-39
2022/05/02 02:22:19;;;;;;;;;;;21.50;40.80;;;;;;476322;248;1097;-39
2022/05/02 02:24:20;;;;;;;;;;;21.50;40.80;;;;;;476876;248;1070;-39
2022/05/02 02:26:21;;;;;;;;;;;21.50;40.80;;;;;;476877;248;1081;-39
2022/05/02 02:28:22;;;;;;;;;;;21.50;40.80;;;;;;476728;248;2129;-39
2022/05/02 02:30:24;;;;;;;;;;;21.50;40.80;;;;;;476872;248;1037;-39
2022/05/02 02:32:25;;;;;;;;;;;21.60;40.80;;;;;;476747;248;1059;-39
2022/05/02 02:34:26;;;;;;;;;;;21.50;40.80;;;;;;476532;248;1279;-39
2022/05/02 02:36:28;;;;;;;;;;;21.60;40.80;;;;;;476335;248;1192;-39
2022/05/02 02:38:29;;;;;;;;;;;21.60;40.80;;;;;;476728;246;1233;-39
2022/05/02 02:40:30;;;;;;;;;;;21.50;40.80;;;;;;476469;248;1032;-39
2022/05/02 02:42:32;;;;;;;;;;;21.50;40.90;;;;;;476459;248;1231;-39
2022/05/02 02:44:33;;;;;;;;;;;21.50;40.80;;;;;;476762;248;1275;-39
2022/05/02 02:46:34;;;;;;;;;;;21.60;40.80;;;;;;476686;248;1603;-39
2022/05/02 02:48:36;;;;;;;;;;;21.60;40.70;;;;;;476863;248;2145;-39
2022/05/02 02:50:37;;;;;;;;;;;21.60;40.70;;;;;;476676;249;1139;-39
2022/05/02 02:52:38;;;;;;;;;;;21.60;40.80;;;;;;476843;248;1104;-39
2022/05/02 02:54:40;;;;;;;;;;;21.60;40.80;;;;;;476840;248;1055;-39
2022/05/02 02:56:41;;;;;;;;;;;21.60;40.80;;;;;;476342;248;1068;-39
2022/05/02 02:58:42;;;;;;;;;;;21.50;40.80;;;;;;476821;248;1000;-39
2022/05/02 03:00:43;;;;;;;;;;;21.50;40.90;;;;;;476744;246;1175;-39
2022/05/02 03:02:45;;;;;;;;;;;21.50;40.90;;;;;;476744;248;1173;-39
2022/05/02 03:07:05;;;;;;;;;;;21.50;40.90;;;;;;476600;249;1111;-39
2022/05/02 03:09:07;;;;;;;;;;;21.50;40.90;;;;;;476930;248;2199;-39
2022/05/02 03:11:08;;;;;;;;;;;21.50;40.80;;;;;;476864;248;1118;-39
2022/05/02 03:13:09;;;;;;;;;;;21.60;40.80;;;;;;476701;248;1069;-39
2022/05/02 03:15:11;;;;;;;;;;;21.60;40.80;;;;;;476748;248;1078;-40
2022/05/02 03:17:12;;;;;;;;;;;21.50;40.70;;;;;;476877;249;1116;-39
2022/05/02 03:19:13;;;;;;;;;;;21.50;40.80;;;;;;476918;248;1095;-39
2022/05/02 03:21:15;;;;;;;;;;;21.50;40.80;;;;;;476626;248;1215;-39
2022/05/02 03:23:16;;;;;;;;;;;21.50;40.80;;;;;;476460;248;1118;-39
2022/05/02 03:25:17;;;;;;;;;;;21.50;40.80;;;;;;476390;248;1056;-39
2022/05/02 03:27:19;;;;;;;;;;;21.50;40.80;;;;;;476790;248;1573;-39
2022/05/02 03:29:20;;;;;;;;;;;21.50;40.80;;;;;;476894;248;2199;-39
2022/05/02 03:31:21;;;;;;;;;;;21.50;40.70;;;;;;476912;248;1050;-39
2022/05/02 03:33:23;;;;;;;;;;;21.60;40.80;;;;;;476870;248;1027;-39
2022/05/02 03:35:25;;;;;;;;;;;21.50;40.70;;;;;;476858;248;1204;-39
2022/05/02 03:37:25;;;;;;;;;;;21.60;40.80;;;;;;476510;249;2139;-39
2022/05/02 03:39:27;;;;;;;;;;;21.60;40.70;;;;;;476757;248;1052;-39
2022/05/02 03:41:28;;;;;;;;;;;21.50;40.70;;;;;;476369;248;1051;-39
2022/05/02 03:43:29;;;;;;;;;;;21.60;40.70;;;;;;476432;248;1172;-39
2022/05/02 03:45:30;;;;;;;;;;;21.50;40.70;;;;;;476410;248;2067;-39
2022/05/02 03:47:32;;;;;;;;;;;21.50;40.70;;;;;;476866;248;1164;-39
2022/05/02 03:49:33;;;;;;;;;;;21.50;40.80;;;;;;476389;248;2195;-39
2022/05/02 03:51:34;;;;;;;;;;;21.50;40.80;;;;;;476295;248;1095;-39
2022/05/02 03:53:36;;;;;;;;;;;21.50;40.70;;;;;;476814;248;1062;-39
2022/05/02 03:55:37;;;;;;;;;;;21.50;40.80;;;;;;476833;248;1169;-39
2022/05/02 03:57:38;;;;;;;;;;;21.40;40.80;;;;;;476655;248;1379;-39
2022/05/02 03:59:40;;;;;;;;;;;21.40;40.80;;;;;;476496;248;1071;-39
2022/05/02 04:01:42;;;;;;;;;;;21.50;40.90;;;;;;476829;248;1350;-39
2022/05/02 04:03:42;;;;;;;;;;;21.50;40.80;;;;;;476800;248;2327;-39
2022/05/02 04:05:44;;;;;;;;;;;21.50;40.80;;;;;;476731;248;1060;-39
2022/05/02 04:07:45;;;;;;;;;;;21.50;40.80;;;;;;476597;248;1144;-39
2022/05/02 04:09:46;;;;;;;;;;;21.50;40.80;;;;;;476428;248;2140;-39
2022/05/02 04:11:47;;;;;;;;;;;21.50;40.90;;;;;;476296;248;1348;-39
2022/05/02 04:13:49;;;;;;;;;;;21.50;40.80;;;;;;476557;248;1076;-39
2022/05/02 04:15:50;;;;;;;;;;;21.50;40.70;;;;;;476375;248;1917;-39
2022/05/02 04:17:52;;;;;;;;;;;21.60;40.70;;;;;;476504;248;1088;-39
2022/05/02 04:19:53;;;;;;;;;;;21.60;40.70;;;;;;476667;248;1224;-39
2022/05/02 04:21:54;;;;;;;;;;;21.50;40.70;;;;;;476317;248;1138;-39
2022/05/02 04:23:55;;;;;;;;;;;21.50;40.70;;;;;;476601;248;1094;-39
2022/05/02 04:25:57;;;;;;;;;;;21.50;40.70;;;;;;476768;248;1066;-39
2022/05/02 04:27:58;;;;;;;;;;;21.50;40.70;;;;;;476354;248;1045;-39
2022/05/02 04:29:59;;;;;;;;;;;21.60;40.70;;;;;;476747;248;2191;-39
2022/05/02 04:32:01;;;;;;;;;;;21.50;40.70;;;;;;476380;248;1207;-39
2022/05/02 04:34:02;;;;;;;;;;;21.50;40.70;;;;;;476287;248;1079;-39
2022/05/02 04:36:03;;;;;;;;;;;21.50;40.70;;;;;;476654;248;1183;-39
2022/05/02 04:38:05;;;;;;;;;;;21.50;40.70;;;;;;476235;248;1508;-39
2022/05/02 04:40:06;;;;;;;;;;;21.50;40.70;;;;;;476774;248;1174;-39
2022/05/02 04:42:07;;;;;;;;;;;21.50;40.70;;;;;;476688;248;1032;-39
2022/05/02 04:44:09;;;;;;;;;;;21.50;40.70;;;;;;476485;248;1094;-39
2022/05/02 04:46:10;;;;;;;;;;;21.50;40.70;;;;;;476259;248;1102;-39
2022/05/02 04:48:11;;;;;;;;;;;21.50;40.70;;;;;;476691;249;1123;-39
2022/05/02 04:50:13;;;;;;;;;;;21.50;40.70;;;;;;476683;248;2184;-39
2022/05/02 04:52:14;;;;;;;;;;;21.50;40.70;;;;;;476314;248;1123;-39
2022/05/02 04:54:15;;;;;;;;;;;21.40;40.80;;;;;;476269;248;1090;-39
2022/05/02 04:56:16;;;;;;;;;;;21.50;40.80;;;;;;476232;248;1180;-39
2022/05/02 04:58:19;;;;;;;;;;;21.50;40.80;;;;;;476211;248;1109;-39
2022/05/02 05:00:19;;;;;;;;;;;21.50;40.70;;;;;;476200;250;2524;-39
2022/05/02 05:02:20;;;;;;;;;;;21.50;40.70;;;;;;476160;248;1428;-39
2022/05/02 05:04:22;;;;;;;;;;;21.50;40.80;;;;;;476180;248;1055;-39
2022/05/02 05:06:23;;;;;;;;;;;21.50;40.70;;;;;;476396;248;1148;-39
2022/05/02 05:08:24;;;;;;;;;;;21.50;40.80;;;;;;476112;248;1233;-39
2022/05/02 05:10:26;;;;;;;;;;;21.50;40.80;;;;;;476339;248;2199;-39
2022/05/02 05:12:27;;;;;;;;;;;21.50;40.90;;;;;;476270;248;1711;-39
2022/05/02 05:16:48;;;;;;;;;;;21.50;40.70;;;;;;476597;249;1098;-39
2022/05/02 05:18:49;;;;;;;;;;;21.50;40.70;;;;;;476461;248;1120;-39
2022/05/02 05:20:50;;;;;;;;;;;21.50;40.70;;;;;;476299;248;1098;-39
2022/05/02 05:22:52;;;;;;;;;;;21.50;40.70;;;;;;476333;248;1253;-39
2022/05/02 05:24:53;;;;;;;;;;;21.60;40.70;;;;;;476432;248;1065;-39
2022/05/02 05:26:54;;;;;;;;;;;21.50;40.60;;;;;;476201;248;1050;-39
2022/05/02 05:28:56;;;;;;;;;;;21.50;40.60;;;;;;476327;248;1047;-39
2022/05/02 05:30:57;;;;;;;;;;;21.50;40.70;;;;;;476443;248;2117;-39
2022/05/02 05:32:58;;;;;;;;;;;21.50;40.70;;;;;;476303;248;1073;-39
2022/05/02 05:34:59;;;;;;;;;;;21.50;40.70;;;;;;476031;248;1135;-39
2022/05/02 05:37:01;;;;;;;;;;;21.50;40.70;;;;;;476129;248;1066;-39
2022/05/02 05:39:02;;;;;;;;;;;21.50;40.70;;;;;;476156;248;1100;-39
2022/05/02 05:41:03;;;;;;;;;;;21.50;40.70;;;;;;476025;248;1168;-39
2022/05/02 05:43:05;;;;;;;;;;;21.50;40.70;;;;;;476040;248;1098;-39
2022/05/02 05:45:06;;;;;;;;;;;21.50;40.70;;;;;;475889;248;1034;-39
2022/05/02 05:47:08;;;;;;;;;;;21.50;40.70;;;;;;476190;248;1067;-39
2022/05/02 05:49:09;;;;;;;;;;;21.50;40.70;;;;;;476041;248;1133;-39
2022/05/02 05:51:11;;;;;;;;;;;21.50;40.60;;;;;;476005;248;2184;-39
2022/05/02 05:53:12;;;;;;;;;;;21.50;40.70;;;;;;476016;248;1159;-39
2022/05/02 05:55:13;;;;;;;;;;;21.50;40.70;;;;;;476129;248;1119;-39
2022/05/02 05:57:15;;;;;;;;;;;21.50;40.70;;;;;;475989;248;1076;-39
2022/05/02 05:59:16;;;;;;;;;;;21.60;40.70;;;;;;475966;248;1153;-39
2022/05/02 06:01:17;;;;;;;;;;;21.50;40.70;;;;;;475986;248;1067;-39
2022/05/02 06:03:19;;;;;;;;;;;21.50;40.70;;;;;;476241;248;1118;-39
2022/05/02 06:05:20;;;;;;;;;;;21.50;40.70;;;;;;475939;248;1099;-39
2022/05/02 06:07:21;;;;;;;;;;;21.50;40.80;;;;;;475826;248;1074;-39
2022/05/02 06:09:23;;;;;;;;;;;21.50;40.70;;;;;;475883;248;1239;-39
2022/05/02 06:11:24;;;;;;;;;;;21.50;40.70;;;;;;476057;248;2276;-39
2022/05/02 06:13:25;;;;;;;;;;;21.50;40.60;;;;;;476073;248;1068;-39
2022/05/02 06:20:05;;;;;;;;;;;21.50;40.70;;;;;;475839;250;1179;-39
2022/05/02 06:22:07;;;;;;;;;;;21.50;40.60;;;;;;475867;248;1095;-39
2022/05/02 06:24:08;;;;;;;;;;;21.50;40.70;;;;;;475979;248;1259;-39
2022/05/02 06:26:09;;;;;;;;;;;21.60;40.60;;;;;;475874;248;1074;-39
2022/05/02 06:28:10;;;;;;;;;;;21.50;40.60;;;;;;475878;248;1243;-40
2022/05/02 06:30:12;;;;;;;;;;;21.60;40.70;;;;;;475862;248;2188;-40
2022/05/02 06:32:13;;;;;;;;;;;21.60;40.70;;;;;;475741;248;1110;-39
2022/05/02 06:34:14;;;;;;;;;;;21.60;40.60;;;;;;475708;248;1524;-39
2022/05/02 06:36:16;;;;;;;;;;;21.60;40.60;;;;;;475900;249;1077;-39
2022/05/02 06:38:17;;;;;;;;;;;21.60;40.60;;;;;;475740;250;1141;-39
2022/05/02 06:40:18;;;;;;;;;;;21.60;40.60;;;;;;475995;248;1145;-39
2022/05/02 06:42:20;;;;;;;;;;;21.50;40.60;;;;;;475731;248;1371;-39
2022/05/02 06:44:21;;;;;;;;;;;21.60;40.60;;;;;;475737;248;1237;-39
2022/05/02 06:46:22;;;;;;;;;;;21.60;40.60;;;;;;475539;248;1112;-39
2022/05/02 06:48:24;;;;;;;;;;;21.60;40.60;;;;;;475456;248;1088;-40
2022/05/02 06:50:25;;;;;;;;;;;21.60;40.60;;;;;;475657;248;2176;-39
2022/05/02 06:52:26;;;;;;;;;;;21.60;40.70;;;;;;475721;249;1278;-39
2022/05/02 06:54:28;;;;;;;;;;;21.50;40.70;;;;;;475541;248;1238;-39
2022/05/02 06:56:29;;;;;;;;;;;21.50;40.70;;;;;;475485;248;1522;-39
2022/05/02 06:58:30;;;;;;;;;;;21.60;40.70;;;;;;475567;248;1106;-39
2022/05/02 07:00:32;;;;;;;;;;;21.60;40.70;;;;;;475357;248;1092;-39
2022/05/02 07:02:34;;;;;;;;;;;21.60;40.70;;;;;;475283;248;1313;-39
2022/05/02 07:04:34;;;;;;;;;;;21.60;40.70;;;;;;475383;248;1930;-39
2022/05/02 07:06:36;;;;;;;;;;;21.60;40.70;;;;;;475411;248;1124;-39
2022/05/02 07:08:37;;;;;;;;;;;21.60;40.70;;;;;;475448;248;1226;-39
2022/05/02 07:10:38;;;;;;;;;;;21.60;40.80;;;;;;475289;248;2208;-39
2022/05/02 07:12:39;;;;;;;;;;;21.60;40.70;;;;;;475253;248;1109;-39
2022/05/02 07:14:41;;;;;;;;;;;21.60;40.70;;;;;;475340;248;1112;-39
2022/05/02 07:16:42;;;;;;;;;;;21.60;40.70;;;;;;475215;248;1097;-39
2022/05/02 07:18:45;;;;;;;;;;;21.60;40.80;;;;;;475273;248;1119;-39
2022/05/02 07:20:45;;;;;;;;;;;21.60;40.80;;;;;;475398;249;2030;-39
2022/05/02 07:22:47;;;;;;;;;;;21.60;40.80;;;;;;475492;248;1078;-39
2022/05/02 07:24:48;;;;;;;;;;;21.60;40.80;;;;;;475404;248;1321;-39
2022/05/02 07:26:49;;;;;;;;;;;21.60;40.80;;;;;;475496;248;1321;-39
2022/05/02 07:28:51;;;;;;;;;;;21.60;40.80;;;;;;475539;248;1233;-39
2022/05/02 07:30:52;;;;;;;;;;;21.60;40.80;;;;;;475384;248;2138;-39
2022/05/02 07:32:53;;;;;;;;;;;21.60;40.80;;;;;;475408;248;1322;-39
2022/05/02 07:34:55;;;;;;;;;;;21.70;40.70;;;;;;475285;248;1216;-39
2022/05/02 07:36:56;;;;;;;;;;;21.60;40.80;;;;;;475333;248;1243;-39
2022/05/02 07:38:58;;;;;;;;;;;21.60;40.80;;;;;;475313;248;1206;-39
2022/05/02 07:43:18;;;;;;;;;;;21.60;40.80;;;;;;475647;249;1124;-39
2022/05/02 07:45:20;;;;;;;;;;;21.60;40.80;;;;;;475690;248;1066;-39
2022/05/02 07:47:21;;;;;;;;;;;21.60;40.90;;;;;;475493;248;1092;-39
2022/05/02 07:49:22;;;;;;;;;;;21.60;41.00;;;;;;475573;248;1048;-39
2022/05/02 07:51:23;;;;;;;;;;;21.60;40.80;;;;;;475592;248;2129;-39
2022/05/02 07:53:25;;;;;;;;;;;21.60;40.80;;;;;;475580;248;1110;-39
2022/05/02 07:55:27;;;;;;;;;;;21.60;40.80;;;;;;475546;248;1218;-39
2022/05/02 07:57:27;;;;;;;;;;;21.60;40.80;;;;;;475414;248;1089;-39
2022/05/02 07:59:29;;;;;;;;;;;21.60;40.80;;;;;;475507;248;1044;-39
2022/05/02 08:01:30;;;;;;;;;;;21.60;40.90;;;;;;475032;248;1079;-39
2022/05/02 08:03:31;;;;;;;;;;;21.60;40.90;;;;;;475185;248;1098;-39
2022/05/02 08:05:34;;;;;;;;;;;21.60;40.90;;;;;;475415;248;1107;-39
2022/05/02 08:07:34;;;;;;;;;;;21.60;41.00;;;;;;475371;248;2165;-39
2022/05/02 08:09:36;;;;;;;;;;;21.60;40.90;;;;;;475457;248;1302;-39
2022/05/02 08:11:37;;;;;;;;;;;21.60;40.90;;;;;;475389;248;2199;-39
2022/05/02 08:13:38;;;;;;;;;;;21.60;40.90;;;;;;474964;248;1246;-39
2022/05/02 08:15:40;;;;;;;;;;;21.60;40.90;;;;;;474834;248;1058;-39
2022/05/02 08:17:41;;;;;;;;;;;21.60;41.00;;;;;;474438;248;1113;-39
2022/05/02 08:19:42;;;;;;;;;;;21.60;41.00;;;;;;475323;248;1376;-39
2022/05/02 08:21:45;;;;;;;;;;;21.60;40.90;;;;;;474862;249;1251;-40
2022/05/02 08:28:24;;;;;;;;;;;21.60;41.00;;;;;;475222;249;1108;-39
2022/05/02 08:30:25;;;;;;;;;;;21.60;41.00;;;;;;475153;248;2196;-39
2022/05/02 08:32:26;;;;;;;;;;;21.70;40.90;;;;;;475323;248;1057;-39
2022/05/02 08:34:28;;;;;;;;;;;21.70;40.90;;;;;;475303;248;1079;-39
2022/05/02 08:36:29;;;;;;;;;;;21.60;41.00;;;;;;475349;248;1114;-39
2022/05/02 08:38:30;;;;;;;;;;;21.70;41.00;;;;;;475401;248;1105;-39
2022/05/02 08:40:32;;;;;;;;;;;21.60;40.90;;;;;;475331;248;1171;-39
2022/05/02 08:42:33;;;;;;;;;;;21.60;41.00;;;;;;475571;248;1364;-39
2022/05/02 08:44:34;;;;;;;;;;;21.60;41.10;;;;;;475665;248;1099;-39
2022/05/02 08:46:36;;;;;;;;;;;21.60;41.10;;;;;;475555;248;1214;-39
2022/05/02 08:48:37;;;;;;;;;;;21.60;41.00;;;;;;475439;248;1224;-39
2022/05/02 08:50:38;;;;;;;;;;;21.60;41.10;;;;;;475486;248;2196;-39
2022/05/02 08:52:40;;;;;;;;;;;21.60;41.10;;;;;;475355;248;1110;-39
2022/05/02 08:54:41;;;;;;;;;;;21.60;41.10;;;;;;475381;248;1157;-39
2022/05/02 08:56:42;;;;;;;;;;;21.60;41.10;;;;;;475211;248;1124;-39
2022/05/02 08:58:44;;;;;;;;;;;21.60;41.20;;;;;;475283;248;1110;-39
2022/05/02 09:00:45;;;;;;;;;;;21.60;41.20;;;;;;475314;248;1098;-39
2022/05/02 09:02:46;;;;;;;;;;;21.60;41.10;;;;;;475466;248;1209;-39
2022/05/02 09:04:48;;;;;;;;;;;21.60;41.10;;;;;;475587;248;1355;-39
2022/05/02 09:06:49;;;;;;;;;;;21.50;41.20;;;;;;475444;248;1388;-39
2022/05/02 09:08:50;;;;;;;;;;;21.60;41.20;;;;;;475494;248;1119;-39
2022/05/02 09:10:52;;;;;;;;;;;21.60;41.20;;;;;;475414;248;2164;-39
2022/05/02 09:12:53;;;;;;;;;;;21.60;41.20;;;;;;475516;248;1246;-39
2022/05/02 09:14:55;;;;;;;;;;;21.60;41.20;;;;;;475411;248;1130;-39
2022/05/02 09:16:56;;;;;;;;;;;21.60;41.20;;;;;;475397;248;1136;-39
2022/05/02 09:18:57;;;;;;;;;;;21.60;41.10;;;;;;475462;248;1091;-40
2022/05/02 09:20:59;;;;;;;;;;;21.60;41.20;;;;;;475411;248;1093;-39
2022/05/02 09:23:00;;;;;;;;;;;21.60;41.20;;;;;;475270;248;1101;-39
2022/05/02 09:25:01;;;;;;;;;;;21.70;41.30;;;;;;475433;248;1107;-39
2022/05/02 09:27:02;;;;;;;;;;;21.60;41.20;;;;;;475460;248;1088;-39
2022/05/02 09:29:04;;;;;;;;;;;21.60;41.10;;;;;;475500;248;1069;-39
2022/05/02 09:31:05;;;;;;;;;;;21.60;41.30;;;;;;475243;248;2184;-39
2022/05/02 09:33:06;;;;;;;;;;;21.60;41.20;;;;;;475280;248;1486;-39
2022/05/02 09:35:08;;;;;;;;;;;21.60;41.30;;;;;;475335;248;1122;-39
2022/05/02 09:37:09;;;;;;;;;;;21.60;41.20;;;;;;475348;248;1074;-39
2022/05/02 09:39:11;;;;;;;;;;;21.70;41.30;;;;;;475364;248;1051;-39
2022/05/02 09:41:12;;;;;;;;;;;21.60;41.20;;;;;;475358;248;1259;-39
2022/05/02 09:43:13;;;;;;;;;;;21.60;41.30;;;;;;475315;248;1096;-39
2022/05/02 09:49:54;;;;;;;;;;;21.60;41.40;;;;;;475402;250;1072;-39
2022/05/02 09:51:55;;;;;;;;;;;21.50;41.40;;;;;;475365;248;2197;-40
2022/05/02 09:53:56;;;;;;;;;;;21.60;41.40;;;;;;475402;248;1137;-39
2022/05/02 09:58:17;;;;;;;;;;;21.60;41.40;;;;;;475592;250;1066;-39
2022/05/02 10:02:38;;;;;;;;;;;21.60;41.30;;;;;;475436;250;1092;-39
2022/05/02 10:04:40;;;;;;;;;;;21.60;41.30;;;;;;475510;248;1984;-40
2022/05/02 10:06:40;;;;;;;;;;;21.60;41.30;;;;;;475419;250;2157;-39
2022/05/02 10:08:42;;;;;;;;;;;21.70;41.30;;;;;;475448;248;1054;-39
2022/05/02 10:10:43;;;;;;;;;;;21.60;41.30;;;;;;475570;248;1188;-39
2022/05/02 10:12:46;;;;;;;;;;;21.60;41.30;;;;;;475620;248;2191;-39
2022/05/02 10:14:46;;;;;;;;;;;21.60;41.30;;;;;;475566;250;2679;-39
2022/05/02 10:16:48;;;;;;;;;;;21.60;41.30;;;;;;475496;248;1528;-39
2022/05/02 10:18:49;;;;;;;;;;;21.60;41.30;;;;;;475295;248;1118;-39
2022/05/02 10:20:50;;;;;;;;;;;21.60;41.30;;;;;;474771;248;1482;-39
2022/05/02 10:22:52;;;;;;;;;;;21.60;41.30;;;;;;475614;248;1093;-39
2022/05/02 10:24:53;;;;;;;;;;;21.60;41.30;;;;;;475514;248;1076;-39
2022/05/02 10:26:54;;;;;;;;;;;21.60;41.30;;;;;;475436;248;1328;-39
2022/05/02 10:28:55;;;;;;;;;;;21.60;41.30;;;;;;475564;248;1117;-39
2022/05/02 10:30:57;;;;;;;;;;;21.60;41.30;;;;;;475671;247;2208;-39
2022/05/02 10:32:58;;;;;;;;;;;21.60;41.40;;;;;;475490;248;1099;-39
2022/05/02 10:34:59;;;;;;;;;;;21.60;41.40;;;;;;475673;248;1109;-39
2022/05/02 10:37:01;;;;;;;;;;;21.60;41.40;;;;;;475594;248;1404;-39
2022/05/02 10:39:04;;;;;;;;;;;21.60;41.40;;;;;;475628;248;1092;-39
2022/05/02 10:41:03;;;;;;;;;;;21.60;41.40;;;;;;475328;250;2413;-39
2022/05/02 10:43:05;;;;;;;;;;;21.60;41.40;;;;;;475455;248;1122;-39
2022/05/02 10:45:06;;;;;;;;;;;21.60;41.40;;;;;;475430;248;1070;-39
2022/05/02 10:47:07;;;;;;;;;;;21.60;41.40;;;;;;475469;248;1351;-39
2022/05/02 10:49:11;;;;;;;;;;;21.60;41.40;;;;;;475526;248;1092;-39
2022/05/02 10:51:11;;;;;;;;;;;21.60;41.50;;;;;;475475;249;2125;-39
2022/05/02 10:53:12;;;;;;;;;;;21.60;41.40;;;;;;475631;248;1144;-39
2022/05/02 10:55:14;;;;;;;;;;;21.60;41.40;;;;;;475629;248;1121;-39
2022/05/02 10:57:15;;;;;;;;;;;21.60;41.50;;;;;;475225;248;1273;-39
2022/05/02 10:59:16;;;;;;;;;;;21.60;41.50;;;;;;475052;248;1113;-39
2022/05/02 11:01:18;;;;;;;;;;;21.60;41.50;;;;;;475291;248;1374;-39
2022/05/02 11:03:19;;;;;;;;;;;21.60;41.40;;;;;;475322;248;1162;-39
2022/05/02 11:05:20;;;;;;;;;;;21.60;41.40;;;;;;475428;248;1091;-39
2022/05/02 11:07:22;;;;;;;;;;;21.60;41.50;;;;;;475315;248;1102;-39
2022/05/02 11:09:23;;;;;;;;;;;21.60;41.50;;;;;;475339;248;1106;-39
2022/05/02 11:11:24;;;;;;;;;;;21.60;41.50;;;;;;475052;248;2208;-39
2022/05/02 11:13:26;;;;;;;;;;;21.60;41.50;;;;;;475180;249;1098;-39
2022/05/02 11:15:27;;;;;;;;;;;21.60;41.50;;;;;;475246;248;1151;-39
2022/05/02 11:17:28;;;;;;;;;;;21.60;41.50;;;;;;475342;248;1086;-39
2022/05/02 11:21:49;;;;;;;;;;;21.60;41.60;;;;;;475361;249;1594;-39
2022/05/02 11:23:51;;;;;;;;;;;21.60;41.60;;;;;;475326;248;1123;-39
2022/05/02 11:25:52;;;;;;;;;;;21.60;41.60;;;;;;475282;248;1076;-39
2022/05/02 11:27:53;;;;;;;;;;;21.60;41.60;;;;;;475381;248;1248;-39
2022/05/02 11:29:55;;;;;;;;;;;21.60;41.50;;;;;;475505;248;1203;-39
2022/05/02 11:31:56;;;;;;;;;;;21.60;41.50;;;;;;475468;248;2196;-39
2022/05/02 11:33:58;;;;;;;;;;;21.60;41.50;;;;;;475430;248;1094;-39
2022/05/02 11:36:00;;;;;;;;;;;21.60;41.50;;;;;;475376;248;1154;-39
2022/05/02 11:38:01;;;;;;;;;;;21.60;41.50;;;;;;475546;248;1056;-39
2022/05/02 11:40:02;;;;;;;;;;;21.60;41.60;;;;;;475498;248;1073;-39
2022/05/02 11:42:04;;;;;;;;;;;21.60;41.70;;;;;;475304;248;1184;-39
2022/05/02 11:44:05;;;;;;;;;;;21.50;41.70;;;;;;475303;248;1082;-39
2022/05/02 11:46:08;;;;;;;;;;;21.50;41.70;;;;;;475160;248;1164;-39
2022/05/02 11:48:08;;;;;;;;;;;21.60;41.70;;;;;;475131;250;1723;-39
2022/05/02 11:50:10;;;;;;;;;;;21.60;41.70;;;;;;475266;248;2032;-39
2022/05/02 11:52:15;;;;;;;;;;;21.60;41.60;;;;;;475268;248;2197;-39
2022/05/02 11:54:13;;;;;;;;;;;21.60;41.60;;;;;;475172;248;1515;-39
2022/05/02 11:56:15;;;;;;;;;;;21.60;41.60;;;;;;475390;248;1205;-39
2022/05/02 11:58:16;;;;;;;;;;;21.60;41.60;;;;;;475414;248;1194;-39
2022/05/02 12:00:17;;;;;;;;;;;21.60;41.60;;;;;;475375;248;1108;-39
2022/05/02 12:02:19;;;;;;;;;;;21.60;41.70;;;;;;475260;248;1107;-39
2022/05/02 12:04:20;;;;;;;;;;;21.50;41.70;;;;;;475452;248;1093;-40
2022/05/02 12:06:21;;;;;;;;;;;21.60;41.70;;;;;;475573;246;1171;-39
2022/05/02 12:08:25;;;;;;;;;;;21.60;41.60;;;;;;476092;248;913;-39
2022/05/02 12:10:24;;;;;;;;;;;21.60;41.70;;;;;;475558;250;2192;-39
2022/05/02 12:12:26;;;;;;;;;;;21.60;41.60;;;;;;475707;248;2196;-39
2022/05/02 12:14:27;;;;;;;;;;;21.60;41.70;;;;;;475502;248;964;-39
2022/05/02 12:16:33;;;;;;;;;;;21.60;41.60;;;;;;475943;248;1213;-39
2022/05/02 12:18:30;;;;;;;;;;;21.60;41.60;;;;;;475813;249;2088;-39
2022/05/02 12:20:31;;;;;;;;;;;21.60;41.70;;;;;;475598;248;1069;-39
2022/05/02 12:22:34;;;;;;;;;;;21.60;41.60;;;;;;475384;248;1175;-39
2022/05/02 12:24:34;;;;;;;;;;;21.60;41.70;;;;;;475381;249;2361;-39